Terminal Aerodrome Forecast
Issued by NWS

Home | Current Version | Previous Version | Text Only | Print | Product List | Glossary On
Versions: 1 2 3 4 5 6 7 8 9 10
495
FTUS46 KPDT 232341
TAFBDN
TAF
KBDN 232341Z 2400/2424 30010KT P6SM VCSH BKN070
      TEMPO 2400/2401 -SHRA BKN040 BKN100
     FM240400 21005KT P6SM VCSH BKN050 BKN100=

USA.gov is the U.S. government's official web portal to all federal, state and local government web resources and services.